createdAt,value
2023-02-04T00:02:20.466Z,4.02
2023-02-04T00:04:52.171Z,3.94
2023-02-04T00:07:20.741Z,3.83
2023-02-04T00:09:50.125Z,3.73
2023-02-04T00:12:18.662Z,3.64
2023-02-04T00:14:47.214Z,3.54
2023-02-04T00:17:15.894Z,3.47
2023-02-04T00:19:44.806Z,3.40
2023-02-04T00:22:13.229Z,3.33
2023-02-04T00:24:43.385Z,3.28
2023-02-04T00:27:12.093Z,3.24
2023-02-04T00:29:40.623Z,3.22
2023-02-04T00:32:09.485Z,3.20
2023-02-04T00:34:38.334Z,3.19
2023-02-04T00:37:07.289Z,3.18
2023-02-04T00:39:35.881Z,3.17
2023-02-04T00:42:05.829Z,3.16
2023-02-04T00:44:36.442Z,3.13
2023-02-04T00:47:05.842Z,3.09
2023-02-04T00:49:35.026Z,3.07
2023-02-04T00:52:03.885Z,3.03
2023-02-04T00:54:32.397Z,2.96
2023-02-04T00:57:00.917Z,2.90
2023-02-04T00:59:29.333Z,2.83
2023-02-04T01:01:57.927Z,2.76
2023-02-04T01:04:28.136Z,2.69
2023-02-04T01:06:56.626Z,2.62
2023-02-04T01:09:28.354Z,2.56
2023-02-04T01:11:59.265Z,2.52
2023-02-04T01:14:28.315Z,2.49
2023-02-04T01:16:59.254Z,2.44
2023-02-04T01:19:27.766Z,2.41
2023-02-04T01:21:58.922Z,2.35
2023-02-04T01:24:27.466Z,2.31
2023-02-04T01:26:58.111Z,2.28
2023-02-04T01:29:26.804Z,2.25
2023-02-04T01:32:01.874Z,2.21
2023-02-04T01:34:31.743Z,2.18
2023-02-04T01:37:00.290Z,2.15
2023-02-04T01:39:30.182Z,2.13
2023-02-04T01:42:01.113Z,2.11
2023-02-04T01:44:32.818Z,2.10
2023-02-04T01:47:01.627Z,2.07
2023-02-04T01:49:30.516Z,2.03
2023-02-04T01:52:00.750Z,1.96
2023-02-04T01:54:29.989Z,1.91
2023-02-04T01:57:03.439Z,1.81
2023-02-04T01:59:34.154Z,1.69
2023-02-04T02:04:53.681Z,1.43
2023-02-04T02:07:24.821Z,1.32
2023-02-04T02:09:53.651Z,1.23
2023-02-04T02:12:22.808Z,1.14
2023-02-04T02:14:56.469Z,1.06
2023-02-04T02:17:28.500Z,0.98
2023-02-04T02:20:00.464Z,0.89
2023-02-04T02:25:58.873Z,0.75
2023-02-04T02:28:30.878Z,0.70
2023-02-04T02:31:02.677Z,0.65
2023-02-04T02:33:34.057Z,0.61
2023-02-04T02:36:02.939Z,0.57
2023-02-04T02:38:31.577Z,0.54
2023-02-04T02:41:00.409Z,0.52
2023-02-04T02:43:30.279Z,0.49
2023-02-04T02:46:01.569Z,0.46
2023-02-04T02:48:30.294Z,0.44
2023-02-04T02:50:58.907Z,0.41
2023-02-04T02:53:30.044Z,0.39
2023-02-04T02:55:58.750Z,0.37
2023-02-04T02:58:59.488Z,0.35
2023-02-04T03:01:28.913Z,0.32
2023-02-04T03:04:00.105Z,0.31
2023-02-04T03:06:28.851Z,0.30
2023-02-04T03:08:57.693Z,0.29
2023-02-04T03:11:29.772Z,0.29
2023-02-04T03:14:03.828Z,0.28
2023-02-04T03:16:36.839Z,0.28
2023-02-04T03:19:07.757Z,0.28
2023-02-04T03:21:36.862Z,0.27
2023-02-04T03:24:06.180Z,0.27
2023-02-04T03:26:35.262Z,0.27
2023-02-04T03:29:09.053Z,0.28
2023-02-04T03:31:41.109Z,0.27
2023-02-04T03:34:12.910Z,0.27
2023-02-04T03:36:44.614Z,0.26
2023-02-04T03:39:13.329Z,0.27
2023-02-04T03:41:41.832Z,0.26
2023-02-04T03:44:10.286Z,0.24
2023-02-04T03:46:38.713Z,0.23
2023-02-04T03:49:07.221Z,0.22
2023-02-04T03:51:36.246Z,0.22
2023-02-04T03:54:04.856Z,0.21
2023-02-04T03:56:33.321Z,0.18
2023-02-04T03:59:01.945Z,0.16
2023-02-04T04:01:30.827Z,0.13
2023-02-04T04:03:59.525Z,0.10
2023-02-04T04:06:28.509Z,0.08
2023-02-04T04:08:56.968Z,0.08
2023-02-04T04:11:25.392Z,0.07
2023-02-04T04:13:53.916Z,0.07
2023-02-04T04:16:22.567Z,0.08
2023-02-04T04:18:50.967Z,0.08
2023-02-04T04:21:19.274Z,0.10
2023-02-04T04:23:47.662Z,0.11
2023-02-04T04:26:17.396Z,0.13
2023-02-04T04:28:45.781Z,0.13
2023-02-04T04:31:14.490Z,0.13
2023-02-04T04:33:42.940Z,0.15
2023-02-04T04:36:11.338Z,0.15
2023-02-04T04:38:39.854Z,0.16
2023-02-04T04:41:08.315Z,0.15
2023-02-04T04:43:36.730Z,0.16
2023-02-04T04:46:05.274Z,0.17
2023-02-04T04:48:33.832Z,0.16
2023-02-04T04:51:02.263Z,0.15
2023-02-04T04:53:30.627Z,0.15
2023-02-04T04:55:59.202Z,0.14
2023-02-04T04:58:27.588Z,0.15
2023-02-04T05:00:56.062Z,0.14
2023-02-04T05:03:24.728Z,0.14
2023-02-04T05:05:53.127Z,0.13
2023-02-04T05:08:21.520Z,0.12
2023-02-04T05:10:49.946Z,0.12
2023-02-04T05:13:18.397Z,0.11
2023-02-04T05:15:46.795Z,0.11
2023-02-04T05:18:15.258Z,0.11
2023-02-04T05:20:43.758Z,0.12
2023-02-04T05:23:12.195Z,0.11
2023-02-04T05:25:40.807Z,0.10
2023-02-04T05:28:09.317Z,0.10
2023-02-04T05:30:37.872Z,0.10
2023-02-04T05:33:06.289Z,0.10
2023-02-04T05:35:34.645Z,0.09
2023-02-04T05:38:03.194Z,0.08
2023-02-04T05:40:31.945Z,0.08
2023-02-04T05:43:00.868Z,0.08
2023-02-04T05:45:29.298Z,0.08
2023-02-04T05:47:57.848Z,0.09
2023-02-04T05:50:26.387Z,0.08
2023-02-04T05:52:54.810Z,0.09
2023-02-04T05:55:23.156Z,0.09
2023-02-04T05:57:51.559Z,0.10
2023-02-04T06:00:20.715Z,0.11
2023-02-04T06:02:49.076Z,0.11
2023-02-04T06:05:18.235Z,0.09
2023-02-04T06:07:50.364Z,0.07
2023-02-04T06:10:19.084Z,0.05
2023-02-04T06:12:48.806Z,0.03
2023-02-04T06:15:19.197Z,-0.01
2023-02-04T06:17:47.781Z,-0.03
2023-02-04T06:20:20.886Z,-0.03
2023-02-04T06:22:51.817Z,-0.02
2023-02-04T06:25:22.321Z,-0.01
2023-02-04T06:27:50.804Z,0.01
2023-02-04T06:30:20.281Z,0.03
2023-02-04T06:32:53.569Z,0.04
2023-02-04T06:35:21.979Z,0.04
2023-02-04T06:37:52.157Z,0.04
2023-02-04T06:40:22.209Z,0.04
2023-02-04T06:42:52.354Z,0.04
2023-02-04T06:45:22.526Z,0.05
2023-02-04T06:47:52.785Z,0.04
2023-02-04T06:50:21.218Z,0.06
2023-02-04T06:52:56.492Z,0.09
2023-02-04T06:55:27.795Z,0.12
2023-02-04T06:57:57.661Z,0.13
2023-02-04T07:00:26.117Z,0.14
2023-02-04T07:02:55.650Z,0.15
2023-02-04T07:05:29.408Z,0.16
2023-02-04T07:08:00.010Z,0.16
2023-02-04T07:10:28.584Z,0.16
2023-02-04T07:12:58.961Z,0.16
2023-02-04T07:15:30.028Z,0.19
2023-02-04T07:18:00.255Z,0.21
2023-02-04T07:20:28.655Z,0.22
2023-02-04T07:22:59.955Z,0.22
2023-02-04T07:25:30.311Z,0.21
2023-02-04T07:28:06.097Z,0.21
2023-02-04T07:30:38.825Z,0.22
2023-02-04T07:33:07.379Z,0.23
2023-02-04T07:35:38.170Z,0.24
2023-02-04T07:38:08.631Z,0.25
2023-02-04T07:40:37.661Z,0.26
2023-02-04T07:43:07.322Z,0.27
2023-02-04T07:45:42.495Z,0.30
2023-02-04T07:48:13.085Z,0.30
2023-02-04T07:50:41.788Z,0.29
2023-02-04T07:53:20.974Z,0.25
2023-02-04T07:55:50.200Z,0.23
2023-02-04T07:58:18.737Z,0.22
2023-02-04T08:00:47.222Z,0.23
2023-02-04T08:03:18.187Z,0.24
2023-02-04T08:05:47.803Z,0.25
2023-02-04T08:08:16.499Z,0.26
2023-02-04T08:10:45.050Z,0.28
2023-02-04T08:13:16.015Z,0.30
2023-02-04T08:15:44.918Z,0.35
2023-02-04T08:18:18.758Z,0.41
2023-02-04T08:20:51.737Z,0.46
2023-02-04T08:23:20.424Z,0.51
2023-02-04T08:25:49.085Z,0.56
2023-02-04T08:28:18.232Z,0.61
2023-02-04T08:30:46.846Z,0.67
2023-02-04T08:33:15.464Z,0.74
2023-02-04T08:35:43.887Z,0.80
2023-02-04T08:38:12.345Z,0.87
2023-02-04T08:40:41.070Z,0.95
2023-02-04T08:43:11.223Z,1.04
2023-02-04T08:45:41.270Z,1.11
2023-02-04T08:48:09.709Z,1.21
2023-02-04T08:50:39.148Z,1.33
2023-02-04T08:53:07.626Z,1.45
2023-02-04T08:55:35.968Z,1.56
2023-02-04T08:58:04.315Z,1.69
2023-02-04T09:00:32.997Z,1.84
2023-02-04T09:03:01.717Z,1.94
2023-02-04T09:05:30.114Z,2.09
2023-02-04T09:07:59.560Z,2.25
2023-02-04T09:10:27.962Z,2.38
2023-02-04T09:12:56.453Z,2.54
2023-02-04T09:15:25.248Z,2.69
2023-02-04T09:17:55.695Z,2.75
2023-02-04T09:20:24.392Z,2.71
2023-02-04T09:22:52.697Z,2.67
2023-02-04T09:25:21.066Z,2.63
2023-02-04T09:27:49.390Z,2.62
2023-02-04T09:30:18.119Z,2.61
2023-02-04T09:32:46.577Z,2.59
2023-02-04T09:35:14.998Z,2.58
2023-02-04T09:37:43.352Z,2.57
2023-02-04T09:40:17.408Z,2.55
2023-02-04T09:42:48.816Z,2.54
2023-02-04T09:45:22.021Z,2.54
2023-02-04T09:47:52.551Z,2.53
2023-02-04T09:50:25.415Z,2.48
2023-02-04T09:52:59.360Z,2.45
2023-02-04T09:55:38.218Z,2.42
2023-02-04T09:58:18.191Z,2.40
2023-02-04T10:01:28.747Z,2.39
2023-02-04T10:04:01.909Z,2.34
2023-02-04T10:06:30.737Z,2.29
2023-02-04T10:08:59.621Z,2.27
2023-02-04T10:11:34.253Z,2.29
2023-02-04T10:14:02.643Z,2.29
2023-02-04T10:16:34.920Z,2.27
2023-02-04T10:19:11.946Z,2.23
2023-02-04T10:21:42.263Z,2.21
2023-02-04T10:24:17.731Z,2.18
2023-02-04T10:26:48.485Z,2.17
2023-02-04T10:29:25.934Z,2.22
2023-02-04T10:31:55.998Z,2.31
2023-02-04T10:34:39.599Z,2.38
2023-02-04T10:37:22.835Z,2.34
2023-02-04T10:39:52.286Z,2.30
2023-02-04T10:42:30.565Z,2.26
2023-02-04T10:45:01.773Z,2.23
2023-02-04T10:47:31.615Z,2.24
2023-02-04T10:50:19.510Z,2.26
2023-02-04T10:52:55.555Z,2.36
2023-02-04T10:55:24.721Z,2.48
2023-02-04T10:57:57.099Z,2.58
2023-02-04T11:00:26.348Z,2.69
2023-02-04T11:03:32.620Z,2.80
2023-02-04T11:06:01.820Z,2.94
2023-02-04T11:08:36.886Z,3.03
2023-02-04T11:11:16.678Z,3.10
2023-02-04T11:13:52.085Z,3.16
2023-02-04T11:16:27.561Z,3.21
2023-02-04T11:19:14.674Z,3.29
2023-02-04T11:21:46.066Z,3.37
2023-02-04T11:24:15.434Z,3.37
2023-02-04T11:26:50.079Z,3.33
2023-02-04T11:29:38.079Z,3.33
2023-02-04T11:32:37.837Z,3.41
2023-02-04T11:35:20.565Z,3.48
2023-02-04T11:37:50.229Z,3.47
2023-02-04T11:40:28.030Z,3.42
2023-02-04T11:43:16.125Z,3.33
2023-02-04T11:45:44.623Z,3.18
2023-02-04T11:48:20.952Z,3.05
2023-02-04T11:51:03.464Z,2.91
2023-02-04T11:53:34.230Z,2.80
2023-02-04T11:56:02.598Z,2.68
2023-02-04T11:58:33.083Z,2.59
2023-02-04T12:01:01.412Z,2.50
2023-02-04T12:03:34.412Z,2.43
2023-02-04T12:06:03.553Z,2.37
2023-02-04T12:08:36.244Z,2.33
2023-02-04T12:11:11.300Z,2.27
2023-02-04T12:13:50.321Z,2.26
2023-02-04T12:16:20.902Z,2.28
2023-02-04T12:18:51.389Z,2.37
2023-02-04T12:21:19.795Z,2.65
2023-02-04T12:23:48.198Z,2.98
2023-02-04T12:26:16.595Z,3.06
2023-02-04T12:28:44.931Z,3.00
2023-02-04T12:31:13.400Z,2.91
2023-02-04T12:33:43.958Z,2.81
2023-02-04T12:36:12.605Z,2.73
2023-02-04T12:38:41.293Z,2.68
2023-02-04T12:41:10.269Z,2.63
2023-02-04T12:43:38.925Z,2.61
2023-02-04T12:46:07.392Z,2.58
2023-02-04T12:48:35.843Z,2.60
2023-02-04T12:51:04.694Z,2.60
2023-02-04T12:53:33.765Z,2.61
2023-02-04T12:56:02.187Z,2.63
2023-02-04T12:58:30.583Z,2.66
2023-02-04T13:00:59.340Z,2.74
2023-02-04T13:03:28.069Z,2.81
2023-02-04T13:05:56.387Z,2.84
2023-02-04T13:08:24.820Z,2.84
2023-02-04T13:10:53.652Z,2.82
2023-02-04T13:13:23.058Z,2.79
2023-02-04T13:15:51.499Z,2.74
2023-02-04T13:18:20.008Z,2.66
2023-02-04T13:20:48.330Z,2.61
2023-02-04T13:23:16.692Z,2.54
2023-02-04T13:25:45.396Z,2.52
2023-02-04T13:28:14.149Z,2.62
2023-02-04T13:30:42.770Z,2.79
2023-02-04T13:33:11.129Z,2.94
2023-02-04T13:35:39.488Z,3.09
2023-02-04T13:38:08.123Z,3.20
2023-02-04T13:40:36.567Z,3.21
2023-02-04T13:43:04.928Z,3.17
2023-02-04T13:45:33.719Z,3.11
2023-02-04T13:48:02.341Z,3.06
2023-02-04T13:50:31.089Z,2.98
2023-02-04T13:52:59.690Z,2.93
2023-02-04T13:55:27.973Z,2.87
2023-02-04T13:57:56.404Z,2.81
2023-02-04T14:00:24.745Z,2.73
2023-02-04T14:02:53.209Z,2.67
2023-02-04T14:05:21.652Z,2.60
2023-02-04T14:07:50.024Z,2.53
2023-02-04T14:10:18.704Z,2.47
2023-02-04T14:12:47.001Z,2.42
2023-02-04T14:15:17.657Z,2.36
2023-02-04T14:17:45.988Z,2.25
2023-02-04T14:20:14.412Z,2.00
2023-02-04T14:22:42.806Z,1.72
2023-02-04T14:25:11.561Z,1.45
2023-02-04T14:27:42.570Z,1.22
2023-02-04T14:30:29.210Z,1.03
2023-02-04T14:32:58.313Z,0.86
2023-02-04T14:35:27.181Z,0.84
2023-02-04T14:37:55.530Z,1.16
2023-02-04T14:40:25.051Z,1.40
2023-02-04T14:42:53.416Z,1.37
2023-02-04T14:45:21.822Z,1.32
2023-02-04T14:47:52.719Z,1.27
2023-02-04T14:50:26.951Z,1.23
2023-02-04T14:52:56.935Z,1.20
2023-02-04T14:55:27.240Z,1.19
2023-02-04T14:57:55.629Z,1.18
2023-02-04T15:00:24.661Z,1.15
2023-02-04T15:02:53.422Z,1.12
2023-02-04T15:05:22.026Z,1.05
2023-02-04T15:07:50.397Z,0.95
2023-02-04T15:10:19.002Z,0.84
2023-02-04T15:12:47.692Z,0.72
2023-02-04T15:15:16.151Z,0.59
2023-02-04T15:17:44.489Z,0.50
2023-02-04T15:20:13.738Z,0.43
2023-02-04T15:22:42.936Z,0.34
2023-02-04T15:25:13.159Z,0.26
2023-02-04T15:27:41.613Z,0.18
2023-02-04T15:30:10.946Z,0.12
2023-02-04T15:32:40.319Z,0.06
2023-02-04T15:35:09.512Z,-0.02
2023-02-04T15:37:38.022Z,-0.06
2023-02-04T15:40:08.779Z,-0.09
2023-02-04T15:42:37.218Z,-0.10
2023-02-04T15:45:06.558Z,-0.10
2023-02-04T15:47:34.969Z,-0.12
2023-02-04T15:50:06.535Z,-0.12
2023-02-04T15:52:34.952Z,-0.11
2023-02-04T15:55:04.311Z,-0.11
2023-02-04T15:57:32.726Z,-0.09
2023-02-04T16:00:01.232Z,-0.07
2023-02-04T16:02:29.828Z,-0.05
2023-02-04T16:04:58.728Z,-0.03
2023-02-04T16:07:27.120Z,-0.02
2023-02-04T16:09:55.571Z,-0.02
2023-02-04T16:12:24.042Z,-0.01
2023-02-04T16:14:53.358Z,-0.01
2023-02-04T16:17:22.240Z,-0.00
2023-02-04T16:19:51.666Z,0.02
2023-02-04T16:22:21.411Z,0.01
2023-02-04T16:24:52.946Z,0.00
2023-02-04T16:27:21.838Z,-0.02
2023-02-04T16:29:50.933Z,-0.03
2023-02-04T16:32:19.866Z,-0.06
2023-02-04T16:34:53.704Z,-0.08
2023-02-04T16:37:22.902Z,-0.09
2023-02-04T16:39:52.170Z,-0.12
2023-02-04T16:42:20.767Z,-0.14
2023-02-04T16:44:51.542Z,-0.17
2023-02-04T16:47:23.471Z,-0.19
2023-02-04T16:49:52.238Z,-0.21
2023-02-04T16:52:31.901Z,-0.22
2023-02-04T16:55:05.997Z,-0.22
2023-02-04T16:57:35.982Z,-0.23
2023-02-04T17:00:15.943Z,-0.24
2023-02-04T17:02:57.035Z,-0.24
2023-02-04T17:05:25.951Z,-0.24
2023-02-04T17:07:55.418Z,-0.24
2023-02-04T17:11:00.974Z,-0.23
2023-02-04T17:13:30.191Z,-0.22
2023-02-04T17:16:01.658Z,-0.21
2023-02-04T17:18:34.612Z,-0.21
2023-02-04T17:21:04.819Z,-0.20
2023-02-04T17:23:35.494Z,-0.21
2023-02-04T17:26:07.255Z,-0.19
2023-02-04T17:28:37.288Z,-0.19
2023-02-04T17:31:06.294Z,-0.18
2023-02-04T17:33:35.618Z,-0.17
2023-02-04T17:36:05.347Z,-0.16
2023-02-04T17:38:36.847Z,-0.15
2023-02-04T17:41:05.819Z,-0.15
2023-02-04T17:43:34.456Z,-0.14
2023-02-04T17:46:03.292Z,-0.13
2023-02-04T17:48:32.071Z,-0.12
2023-02-04T17:51:00.518Z,-0.10
2023-02-04T17:53:29.045Z,-0.09
2023-02-04T17:55:57.441Z,-0.09
2023-02-04T17:58:29.756Z,-0.07
2023-02-04T18:00:59.386Z,-0.05
2023-02-04T18:03:29.062Z,-0.03
2023-02-04T18:05:57.837Z,-0.02
2023-02-04T18:08:38.227Z,-0.01
2023-02-04T18:11:20.386Z,0.00
2023-02-04T18:13:49.068Z,0.01
2023-02-04T18:16:34.358Z,0.01
2023-02-04T18:19:19.305Z,0.02
2023-02-04T18:21:49.692Z,0.01
2023-02-04T18:24:30.475Z,0.02
2023-02-04T18:27:28.360Z,0.01
2023-02-04T18:29:59.173Z,0.02
2023-02-04T18:32:40.216Z,0.02
2023-02-04T18:35:40.484Z,0.03
2023-02-04T18:38:23.793Z,0.02
2023-02-04T18:41:17.924Z,0.02
2023-02-04T18:44:02.466Z,0.02
2023-02-04T18:46:42.348Z,0.02
2023-02-04T18:49:33.258Z,0.02
2023-02-04T18:52:24.405Z,0.01
2023-02-04T18:54:59.028Z,-0.00
2023-02-04T18:57:39.749Z,-0.00
2023-02-04T19:00:19.986Z,-0.01
2023-02-04T19:02:53.987Z,-0.01
2023-02-04T19:05:48.969Z,-0.01
2023-02-04T19:08:25.814Z,-0.01
2023-02-04T19:10:58.088Z,-0.04
2023-02-04T19:13:41.870Z,-0.06
2023-02-04T19:16:33.888Z,-0.09
2023-02-04T19:19:25.683Z,-0.13
2023-02-04T19:21:58.835Z,-0.18
2023-02-04T19:24:29.764Z,-0.23
2023-02-04T19:27:01.750Z,-0.30
2023-02-04T19:29:42.083Z,-0.36
2023-02-04T19:32:45.475Z,-0.41
2023-02-04T19:35:23.477Z,-0.46
2023-02-04T19:38:40.614Z,-0.51
2023-02-04T19:41:33.549Z,-0.54
2023-02-04T19:44:30.263Z,-0.56
2023-02-04T19:47:18.604Z,-0.58
2023-02-04T19:49:47.960Z,-0.59
2023-02-04T19:52:34.809Z,-0.59
2023-02-04T19:55:19.598Z,-0.58
2023-02-04T19:57:54.053Z,-0.57
2023-02-04T20:00:36.402Z,-0.57
2023-02-04T20:03:16.970Z,-0.59
2023-02-04T20:05:47.888Z,-0.59
2023-02-04T20:08:54.754Z,-0.60
2023-02-04T20:11:35.290Z,-0.60
2023-02-04T20:14:15.856Z,-0.59
2023-02-04T20:17:03.353Z,-0.57
2023-02-04T20:19:31.694Z,-0.55
2023-02-04T20:22:18.746Z,-0.53
2023-02-04T20:24:53.538Z,-0.51
2023-02-04T20:27:32.942Z,-0.51
2023-02-04T20:30:26.203Z,-0.51
2023-02-04T20:32:58.929Z,-0.51
2023-02-04T20:35:31.996Z,-0.49
2023-02-04T20:38:11.379Z,-0.49
2023-02-04T20:40:40.061Z,-0.48
2023-02-04T20:43:20.262Z,-0.48
2023-02-04T20:46:05.150Z,-0.50
2023-02-04T20:48:38.308Z,-0.52
2023-02-04T20:51:26.673Z,-0.55
2023-02-04T20:54:02.063Z,-0.58
2023-02-04T20:56:40.159Z,-0.62
2023-02-04T20:59:14.427Z,-0.68
2023-02-04T21:01:50.239Z,-0.72
2023-02-04T21:04:23.081Z,-0.76
2023-02-04T21:07:00.885Z,-0.81
2023-02-04T21:09:32.870Z,-0.87
2023-02-04T21:12:02.687Z,-0.91
2023-02-04T21:14:31.043Z,-0.95
2023-02-04T21:16:59.668Z,-1.00
2023-02-04T21:19:28.232Z,-1.04
2023-02-04T21:21:57.849Z,-1.08
2023-02-04T21:24:28.319Z,-1.11
2023-02-04T21:26:56.935Z,-1.14
2023-02-04T21:29:26.125Z,-1.19
2023-02-04T21:31:54.999Z,-1.23
2023-02-04T21:34:23.360Z,-1.27
2023-02-04T21:36:51.781Z,-1.29
2023-02-04T21:39:20.834Z,-1.33
2023-02-04T21:42:09.157Z,-1.36
2023-02-04T21:44:38.294Z,-1.39
2023-02-04T21:47:06.831Z,-1.42
2023-02-04T21:49:36.868Z,-1.43
2023-02-04T21:52:06.590Z,-1.46
2023-02-04T21:54:35.040Z,-1.48
2023-02-04T21:57:04.522Z,-1.49
2023-02-04T21:59:33.798Z,-1.51
2023-02-04T22:02:02.182Z,-1.53
2023-02-04T22:04:30.640Z,-1.56
2023-02-04T22:06:59.209Z,-1.57
2023-02-04T22:09:27.680Z,-1.58
2023-02-04T22:11:56.338Z,-1.60
2023-02-04T22:14:24.712Z,-1.60
2023-02-04T22:16:53.085Z,-1.61
2023-02-04T22:19:21.503Z,-1.61
2023-02-04T22:21:49.906Z,-1.60
2023-02-04T22:24:18.431Z,-1.57
2023-02-04T22:26:46.866Z,-1.54
2023-02-04T22:29:19.783Z,-1.51
2023-02-04T22:31:48.135Z,-1.48
2023-02-04T22:34:16.738Z,-1.47
2023-02-04T22:36:45.134Z,-1.46
2023-02-04T22:39:13.699Z,-1.45
2023-02-04T22:41:42.035Z,-1.44
2023-02-04T22:44:10.438Z,-1.44
2023-02-04T22:46:38.809Z,-1.43
2023-02-04T22:49:07.564Z,-1.43
2023-02-04T22:51:36.012Z,-1.41
2023-02-04T22:54:04.827Z,-1.41
2023-02-04T22:56:34.944Z,-1.39
2023-02-04T22:59:03.471Z,-1.39
2023-02-04T23:01:34.574Z,-1.38
2023-02-04T23:04:03.096Z,-1.36
2023-02-04T23:06:31.770Z,-1.34
2023-02-04T23:09:01.060Z,-1.32
2023-02-04T23:11:29.627Z,-1.30
2023-02-04T23:13:58.025Z,-1.29
2023-02-04T23:16:26.666Z,-1.28
2023-02-04T23:18:55.266Z,-1.29
2023-02-04T23:21:23.692Z,-1.29
2023-02-04T23:23:52.647Z,-1.29
2023-02-04T23:26:21.766Z,-1.30
2023-02-04T23:28:50.155Z,-1.32
2023-02-04T23:31:18.600Z,-1.36
2023-02-04T23:33:46.985Z,-1.38
2023-02-04T23:36:15.393Z,-1.41
2023-02-04T23:38:43.784Z,-1.44
2023-02-04T23:41:12.160Z,-1.48
2023-02-04T23:43:40.561Z,-1.51
2023-02-04T23:46:09.284Z,-1.54
2023-02-04T23:48:37.665Z,-1.59
2023-02-04T23:51:06.204Z,-1.62
2023-02-04T23:53:34.620Z,-1.67
2023-02-04T23:56:03.238Z,-1.71
2023-02-04T23:58:31.622Z,-1.75
